sensor_id;sensor_type;location;lat;lon;timestamp;P1;durP1;ratioP1;P2;durP2;ratioP2
61435;SDS011;47304;47.456;19.160;2023-05-21T00:00:31;11.40;;;7.30;;
61435;SDS011;47304;47.456;19.160;2023-05-21T00:02:57;12.20;;;7.90;;
61435;SDS011;47304;47.456;19.160;2023-05-21T00:05:24;12.60;;;7.50;;
61435;SDS011;47304;47.456;19.160;2023-05-21T00:07:51;12.40;;;7.50;;
61435;SDS011;47304;47.456;19.160;2023-05-21T00:10:17;12.20;;;7.60;;
61435;SDS011;47304;47.456;19.160;2023-05-21T00:12:44;11.10;;;7.10;;
61435;SDS011;47304;47.456;19.160;2023-05-21T00:15:11;12.30;;;7.10;;
61435;SDS011;47304;47.456;19.160;2023-05-21T00:17:38;12.90;;;7.40;;
61435;SDS011;47304;47.456;19.160;2023-05-21T00:20:04;11.50;;;7.20;;
61435;SDS011;47304;47.456;19.160;2023-05-21T00:22:31;13.20;;;7.60;;
61435;SDS011;47304;47.456;19.160;2023-05-21T00:24:58;12.60;;;7.10;;
61435;SDS011;47304;47.456;19.160;2023-05-21T00:27:25;11.90;;;6.80;;
61435;SDS011;47304;47.456;19.160;2023-05-21T00:29:51;12.40;;;7.00;;
61435;SDS011;47304;47.456;19.160;2023-05-21T00:32:18;13.80;;;7.40;;
61435;SDS011;47304;47.456;19.160;2023-05-21T00:34:44;12.40;;;7.10;;
61435;SDS011;47304;47.456;19.160;2023-05-21T00:37:11;16.20;;;7.50;;
61435;SDS011;47304;47.456;19.160;2023-05-21T00:39:37;13.80;;;7.60;;
61435;SDS011;47304;47.456;19.160;2023-05-21T00:42:04;12.80;;;7.10;;
61435;SDS011;47304;47.456;19.160;2023-05-21T00:44:30;12.00;;;7.10;;
61435;SDS011;47304;47.456;19.160;2023-05-21T00:46:57;11.70;;;7.20;;
61435;SDS011;47304;47.456;19.160;2023-05-21T00:49:23;11.50;;;7.10;;
61435;SDS011;47304;47.456;19.160;2023-05-21T00:51:50;12.70;;;7.40;;
61435;SDS011;47304;47.456;19.160;2023-05-21T00:54:17;10.70;;;7.20;;
61435;SDS011;47304;47.456;19.160;2023-05-21T00:56:43;12.20;;;7.00;;
61435;SDS011;47304;47.456;19.160;2023-05-21T00:59:12;11.30;;;7.20;;
61435;SDS011;47304;47.456;19.160;2023-05-21T01:01:44;12.20;;;7.50;;
61435;SDS011;47304;47.456;19.160;2023-05-21T01:04:11;12.40;;;7.10;;
61435;SDS011;47304;47.456;19.160;2023-05-21T01:06:38;12.80;;;7.30;;
61435;SDS011;47304;47.456;19.160;2023-05-21T01:09:04;15.80;;;7.50;;
61435;SDS011;47304;47.456;19.160;2023-05-21T01:11:39;11.80;;;7.20;;
61435;SDS011;47304;47.456;19.160;2023-05-21T01:14:09;13.60;;;7.50;;
61435;SDS011;47304;47.456;19.160;2023-05-21T01:16:37;13.30;;;7.80;;
61435;SDS011;47304;47.456;19.160;2023-05-21T01:19:06;12.80;;;7.70;;
61435;SDS011;47304;47.456;19.160;2023-05-21T01:21:36;13.30;;;7.50;;
61435;SDS011;47304;47.456;19.160;2023-05-21T01:24:06;13.20;;;7.90;;
61435;SDS011;47304;47.456;19.160;2023-05-21T01:26:33;12.80;;;7.50;;
61435;SDS011;47304;47.456;19.160;2023-05-21T01:28:59;11.80;;;7.40;;
61435;SDS011;47304;47.456;19.160;2023-05-21T01:31:26;11.20;;;7.30;;
61435;SDS011;47304;47.456;19.160;2023-05-21T01:34:00;11.50;;;7.10;;
61435;SDS011;47304;47.456;19.160;2023-05-21T01:39:00;13.70;;;7.70;;
61435;SDS011;47304;47.456;19.160;2023-05-21T01:41:33;13.60;;;7.10;;
61435;SDS011;47304;47.456;19.160;2023-05-21T01:44:03;11.70;;;7.10;;
61435;SDS011;47304;47.456;19.160;2023-05-21T01:46:34;12.20;;;7.00;;
61435;SDS011;47304;47.456;19.160;2023-05-21T01:49:01;11.30;;;7.10;;
61435;SDS011;47304;47.456;19.160;2023-05-21T01:51:31;12.00;;;7.30;;
61435;SDS011;47304;47.456;19.160;2023-05-21T01:53:58;12.30;;;6.80;;
61435;SDS011;47304;47.456;19.160;2023-05-21T01:56:25;12.60;;;7.30;;
61435;SDS011;47304;47.456;19.160;2023-05-21T01:58:51;12.30;;;7.40;;
61435;SDS011;47304;47.456;19.160;2023-05-21T02:01:18;10.20;;;6.80;;
61435;SDS011;47304;47.456;19.160;2023-05-21T02:03:44;14.00;;;7.30;;
61435;SDS011;47304;47.456;19.160;2023-05-21T02:06:11;11.40;;;7.40;;
61435;SDS011;47304;47.456;19.160;2023-05-21T02:08:37;11.80;;;7.40;;
61435;SDS011;47304;47.456;19.160;2023-05-21T02:11:04;10.90;;;6.80;;
61435;SDS011;47304;47.456;19.160;2023-05-21T02:13:30;13.20;;;7.10;;
61435;SDS011;47304;47.456;19.160;2023-05-21T02:15:57;11.90;;;7.20;;
61435;SDS011;47304;47.456;19.160;2023-05-21T02:18:23;13.20;;;8.50;;
61435;SDS011;47304;47.456;19.160;2023-05-21T02:20:50;12.30;;;7.30;;
61435;SDS011;47304;47.456;19.160;2023-05-21T02:23:17;11.30;;;6.70;;
61435;SDS011;47304;47.456;19.160;2023-05-21T02:25:43;11.40;;;6.50;;
61435;SDS011;47304;47.456;19.160;2023-05-21T02:28:10;11.10;;;7.40;;
61435;SDS011;47304;47.456;19.160;2023-05-21T02:30:36;11.40;;;7.00;;
61435;SDS011;47304;47.456;19.160;2023-05-21T02:33:03;11.70;;;7.10;;
61435;SDS011;47304;47.456;19.160;2023-05-21T02:35:29;11.10;;;6.90;;
61435;SDS011;47304;47.456;19.160;2023-05-21T02:37:56;11.60;;;7.40;;
61435;SDS011;47304;47.456;19.160;2023-05-21T02:40:23;13.20;;;6.90;;
61435;SDS011;47304;47.456;19.160;2023-05-21T02:42:49;10.70;;;6.70;;
61435;SDS011;47304;47.456;19.160;2023-05-21T02:45:16;14.50;;;7.10;;
61435;SDS011;47304;47.456;19.160;2023-05-21T02:47:42;11.00;;;6.60;;
61435;SDS011;47304;47.456;19.160;2023-05-21T02:50:09;13.10;;;6.90;;
61435;SDS011;47304;47.456;19.160;2023-05-21T02:52:35;13.20;;;7.50;;
61435;SDS011;47304;47.456;19.160;2023-05-21T02:55:02;10.70;;;6.90;;
61435;SDS011;47304;47.456;19.160;2023-05-21T02:57:29;11.30;;;6.20;;
61435;SDS011;47304;47.456;19.160;2023-05-21T02:59:55;12.00;;;6.80;;
61435;SDS011;47304;47.456;19.160;2023-05-21T03:02:22;11.30;;;7.00;;
61435;SDS011;47304;47.456;19.160;2023-05-21T03:04:49;12.80;;;7.00;;
61435;SDS011;47304;47.456;19.160;2023-05-21T03:07:15;13.50;;;7.20;;
61435;SDS011;47304;47.456;19.160;2023-05-21T03:09:43;11.40;;;6.60;;
61435;SDS011;47304;47.456;19.160;2023-05-21T03:12:10;10.70;;;6.20;;
61435;SDS011;47304;47.456;19.160;2023-05-21T03:14:37;14.90;;;6.80;;
61435;SDS011;47304;47.456;19.160;2023-05-21T03:17:04;11.40;;;6.30;;
61435;SDS011;47304;47.456;19.160;2023-05-21T03:19:31;11.50;;;6.20;;
61435;SDS011;47304;47.456;19.160;2023-05-21T03:21:58;10.70;;;6.40;;
61435;SDS011;47304;47.456;19.160;2023-05-21T03:24:26;12.70;;;6.50;;
61435;SDS011;47304;47.456;19.160;2023-05-21T03:26:53;12.20;;;6.70;;
61435;SDS011;47304;47.456;19.160;2023-05-21T03:29:19;12.00;;;6.40;;
61435;SDS011;47304;47.456;19.160;2023-05-21T03:31:46;11.20;;;6.40;;
61435;SDS011;47304;47.456;19.160;2023-05-21T03:34:13;13.10;;;6.40;;
61435;SDS011;47304;47.456;19.160;2023-05-21T03:36:39;10.60;;;6.20;;
61435;SDS011;47304;47.456;19.160;2023-05-21T03:39:06;11.00;;;5.90;;
61435;SDS011;47304;47.456;19.160;2023-05-21T03:41:32;10.30;;;6.20;;
61435;SDS011;47304;47.456;19.160;2023-05-21T03:43:59;9.90;;;6.00;;
61435;SDS011;47304;47.456;19.160;2023-05-21T03:46:25;11.10;;;5.90;;
61435;SDS011;47304;47.456;19.160;2023-05-21T03:48:52;10.80;;;6.50;;
61435;SDS011;47304;47.456;19.160;2023-05-21T03:51:19;11.60;;;6.20;;
61435;SDS011;47304;47.456;19.160;2023-05-21T03:53:45;12.40;;;6.60;;
61435;SDS011;47304;47.456;19.160;2023-05-21T03:56:12;10.30;;;6.30;;
61435;SDS011;47304;47.456;19.160;2023-05-21T03:58:39;10.70;;;5.80;;
61435;SDS011;47304;47.456;19.160;2023-05-21T04:01:05;10.90;;;6.10;;
61435;SDS011;47304;47.456;19.160;2023-05-21T04:03:32;9.80;;;6.00;;
61435;SDS011;47304;47.456;19.160;2023-05-21T04:05:58;10.10;;;5.90;;
61435;SDS011;47304;47.456;19.160;2023-05-21T04:08:25;10.30;;;6.10;;
61435;SDS011;47304;47.456;19.160;2023-05-21T04:10:52;15.40;;;6.20;;
61435;SDS011;47304;47.456;19.160;2023-05-21T04:13:18;10.60;;;6.00;;
61435;SDS011;47304;47.456;19.160;2023-05-21T04:15:45;10.30;;;6.10;;
61435;SDS011;47304;47.456;19.160;2023-05-21T04:18:12;10.60;;;5.80;;
61435;SDS011;47304;47.456;19.160;2023-05-21T04:20:38;13.20;;;6.20;;
61435;SDS011;47304;47.456;19.160;2023-05-21T04:23:05;11.50;;;6.30;;
61435;SDS011;47304;47.456;19.160;2023-05-21T04:25:31;10.20;;;5.90;;
61435;SDS011;47304;47.456;19.160;2023-05-21T04:27:58;10.60;;;6.00;;
61435;SDS011;47304;47.456;19.160;2023-05-21T04:30:25;11.50;;;6.20;;
61435;SDS011;47304;47.456;19.160;2023-05-21T04:32:51;10.30;;;5.90;;
61435;SDS011;47304;47.456;19.160;2023-05-21T04:35:18;9.70;;;6.00;;
61435;SDS011;47304;47.456;19.160;2023-05-21T04:37:45;9.90;;;5.20;;
61435;SDS011;47304;47.456;19.160;2023-05-21T04:40:12;10.80;;;5.60;;
61435;SDS011;47304;47.456;19.160;2023-05-21T04:42:38;12.70;;;5.70;;
61435;SDS011;47304;47.456;19.160;2023-05-21T04:45:05;10.60;;;5.70;;
61435;SDS011;47304;47.456;19.160;2023-05-21T04:47:32;11.10;;;6.20;;
61435;SDS011;47304;47.456;19.160;2023-05-21T04:49:58;11.10;;;5.70;;
61435;SDS011;47304;47.456;19.160;2023-05-21T04:52:25;11.40;;;5.70;;
61435;SDS011;47304;47.456;19.160;2023-05-21T04:54:52;11.00;;;5.80;;
61435;SDS011;47304;47.456;19.160;2023-05-21T04:57:18;11.60;;;5.60;;
61435;SDS011;47304;47.456;19.160;2023-05-21T04:59:45;11.70;;;6.20;;
61435;SDS011;47304;47.456;19.160;2023-05-21T05:02:11;10.80;;;5.70;;
61435;SDS011;47304;47.456;19.160;2023-05-21T05:04:38;10.10;;;5.80;;
61435;SDS011;47304;47.456;19.160;2023-05-21T05:07:04;10.80;;;5.50;;
61435;SDS011;47304;47.456;19.160;2023-05-21T05:09:31;9.50;;;5.50;;
61435;SDS011;47304;47.456;19.160;2023-05-21T05:11:57;10.20;;;5.70;;
61435;SDS011;47304;47.456;19.160;2023-05-21T05:14:24;9.00;;;5.00;;
61435;SDS011;47304;47.456;19.160;2023-05-21T05:16:50;10.60;;;5.50;;
61435;SDS011;47304;47.456;19.160;2023-05-21T05:19:17;10.60;;;6.20;;
61435;SDS011;47304;47.456;19.160;2023-05-21T05:21:44;10.70;;;5.50;;
61435;SDS011;47304;47.456;19.160;2023-05-21T05:24:10;10.50;;;5.30;;
61435;SDS011;47304;47.456;19.160;2023-05-21T05:26:37;11.80;;;5.90;;
61435;SDS011;47304;47.456;19.160;2023-05-21T05:29:03;10.10;;;5.50;;
61435;SDS011;47304;47.456;19.160;2023-05-21T05:31:30;10.00;;;5.70;;
61435;SDS011;47304;47.456;19.160;2023-05-21T05:33:56;10.00;;;5.70;;
61435;SDS011;47304;47.456;19.160;2023-05-21T05:36:23;8.60;;;5.00;;
61435;SDS011;47304;47.456;19.160;2023-05-21T05:38:49;12.00;;;5.50;;
61435;SDS011;47304;47.456;19.160;2023-05-21T05:41:16;9.20;;;5.30;;
61435;SDS011;47304;47.456;19.160;2023-05-21T05:43:42;8.80;;;5.70;;
61435;SDS011;47304;47.456;19.160;2023-05-21T05:46:09;11.90;;;5.60;;
61435;SDS011;47304;47.456;19.160;2023-05-21T05:48:36;10.70;;;5.30;;
61435;SDS011;47304;47.456;19.160;2023-05-21T05:51:02;11.20;;;5.10;;
61435;SDS011;47304;47.456;19.160;2023-05-21T05:53:29;9.50;;;5.70;;
61435;SDS011;47304;47.456;19.160;2023-05-21T05:55:55;13.00;;;6.40;;
61435;SDS011;47304;47.456;19.160;2023-05-21T05:58:22;8.80;;;5.20;;
61435;SDS011;47304;47.456;19.160;2023-05-21T06:00:48;14.70;;;8.20;;
61435;SDS011;47304;47.456;19.160;2023-05-21T06:03:15;14.10;;;5.70;;
61435;SDS011;47304;47.456;19.160;2023-05-21T06:05:42;9.90;;;5.80;;
61435;SDS011;47304;47.456;19.160;2023-05-21T06:08:08;10.70;;;5.80;;
61435;SDS011;47304;47.456;19.160;2023-05-21T06:10:35;12.40;;;6.00;;
61435;SDS011;47304;47.456;19.160;2023-05-21T06:13:01;8.50;;;4.80;;
61435;SDS011;47304;47.456;19.160;2023-05-21T06:15:28;10.20;;;5.30;;
61435;SDS011;47304;47.456;19.160;2023-05-21T06:17:55;22.00;;;5.80;;
61435;SDS011;47304;47.456;19.160;2023-05-21T06:20:22;12.00;;;5.60;;
61435;SDS011;47304;47.456;19.160;2023-05-21T06:22:48;13.40;;;6.90;;
61435;SDS011;47304;47.456;19.160;2023-05-21T06:25:15;9.40;;;5.10;;
61435;SDS011;47304;47.456;19.160;2023-05-21T06:27:42;10.00;;;5.70;;
61435;SDS011;47304;47.456;19.160;2023-05-21T06:30:08;9.30;;;5.40;;
61435;SDS011;47304;47.456;19.160;2023-05-21T06:32:35;10.70;;;5.40;;
61435;SDS011;47304;47.456;19.160;2023-05-21T06:35:01;13.10;;;6.90;;
61435;SDS011;47304;47.456;19.160;2023-05-21T06:37:28;12.50;;;6.00;;
61435;SDS011;47304;47.456;19.160;2023-05-21T06:39:55;10.90;;;5.60;;
61435;SDS011;47304;47.456;19.160;2023-05-21T06:42:21;11.10;;;5.70;;
61435;SDS011;47304;47.456;19.160;2023-05-21T06:44:48;9.80;;;5.50;;
61435;SDS011;47304;47.456;19.160;2023-05-21T06:47:14;9.60;;;4.90;;
61435;SDS011;47304;47.456;19.160;2023-05-21T06:49:41;9.70;;;5.50;;
61435;SDS011;47304;47.456;19.160;2023-05-21T06:52:07;7.80;;;4.70;;
61435;SDS011;47304;47.456;19.160;2023-05-21T06:54:34;9.10;;;5.20;;
61435;SDS011;47304;47.456;19.160;2023-05-21T06:57:00;10.10;;;5.90;;
61435;SDS011;47304;47.456;19.160;2023-05-21T06:59:27;10.40;;;5.70;;
61435;SDS011;47304;47.456;19.160;2023-05-21T07:01:54;10.00;;;6.10;;
61435;SDS011;47304;47.456;19.160;2023-05-21T07:04:20;9.40;;;5.10;;
61435;SDS011;47304;47.456;19.160;2023-05-21T07:06:47;8.50;;;5.20;;
61435;SDS011;47304;47.456;19.160;2023-05-21T07:09:13;9.60;;;5.30;;
61435;SDS011;47304;47.456;19.160;2023-05-21T07:11:40;10.10;;;5.50;;
61435;SDS011;47304;47.456;19.160;2023-05-21T07:14:07;10.20;;;6.20;;
61435;SDS011;47304;47.456;19.160;2023-05-21T07:16:34;10.00;;;5.70;;
61435;SDS011;47304;47.456;19.160;2023-05-21T07:19:00;9.00;;;4.80;;
61435;SDS011;47304;47.456;19.160;2023-05-21T07:21:27;7.70;;;4.80;;
61435;SDS011;47304;47.456;19.160;2023-05-21T07:23:53;10.70;;;5.70;;
61435;SDS011;47304;47.456;19.160;2023-05-21T07:26:20;14.40;;;7.70;;
61435;SDS011;47304;47.456;19.160;2023-05-21T07:28:46;22.60;;;15.80;;
61435;SDS011;47304;47.456;19.160;2023-05-21T07:31:13;12.30;;;7.40;;
61435;SDS011;47304;47.456;19.160;2023-05-21T07:33:40;11.60;;;6.00;;
61435;SDS011;47304;47.456;19.160;2023-05-21T07:36:06;9.10;;;5.20;;
61435;SDS011;47304;47.456;19.160;2023-05-21T07:38:33;9.50;;;5.30;;
61435;SDS011;47304;47.456;19.160;2023-05-21T07:40:59;9.10;;;5.50;;
61435;SDS011;47304;47.456;19.160;2023-05-21T07:43:26;8.80;;;4.90;;
61435;SDS011;47304;47.456;19.160;2023-05-21T07:45:52;11.00;;;5.90;;
61435;SDS011;47304;47.456;19.160;2023-05-21T07:48:19;10.20;;;5.30;;
61435;SDS011;47304;47.456;19.160;2023-05-21T07:50:45;9.80;;;6.20;;
61435;SDS011;47304;47.456;19.160;2023-05-21T07:53:12;11.00;;;5.20;;
61435;SDS011;47304;47.456;19.160;2023-05-21T07:55:39;10.40;;;5.60;;
61435;SDS011;47304;47.456;19.160;2023-05-21T07:58:05;10.50;;;5.60;;
61435;SDS011;47304;47.456;19.160;2023-05-21T08:00:36;9.50;;;5.20;;
61435;SDS011;47304;47.456;19.160;2023-05-21T08:03:08;9.40;;;5.70;;
61435;SDS011;47304;47.456;19.160;2023-05-21T08:05:34;10.20;;;5.80;;
61435;SDS011;47304;47.456;19.160;2023-05-21T08:08:01;10.50;;;5.40;;
61435;SDS011;47304;47.456;19.160;2023-05-21T08:10:28;11.30;;;4.80;;
61435;SDS011;47304;47.456;19.160;2023-05-21T08:12:54;9.90;;;5.20;;
61435;SDS011;47304;47.456;19.160;2023-05-21T08:15:21;10.90;;;5.20;;
61435;SDS011;47304;47.456;19.160;2023-05-21T08:17:47;8.80;;;4.90;;
61435;SDS011;47304;47.456;19.160;2023-05-21T08:20:14;8.60;;;5.20;;
61435;SDS011;47304;47.456;19.160;2023-05-21T08:22:40;9.70;;;5.20;;
61435;SDS011;47304;47.456;19.160;2023-05-21T08:25:07;9.60;;;5.20;;
61435;SDS011;47304;47.456;19.160;2023-05-21T08:27:34;9.10;;;5.30;;
61435;SDS011;47304;47.456;19.160;2023-05-21T08:30:00;9.90;;;5.50;;
61435;SDS011;47304;47.456;19.160;2023-05-21T08:32:27;11.10;;;5.90;;
61435;SDS011;47304;47.456;19.160;2023-05-21T08:34:54;10.50;;;5.90;;
61435;SDS011;47304;47.456;19.160;2023-05-21T08:37:20;10.30;;;5.30;;
61435;SDS011;47304;47.456;19.160;2023-05-21T08:39:47;11.80;;;6.90;;
61435;SDS011;47304;47.456;19.160;2023-05-21T08:42:32;12.20;;;6.10;;
61435;SDS011;47304;47.456;19.160;2023-05-21T08:45:04;8.70;;;4.90;;
61435;SDS011;47304;47.456;19.160;2023-05-21T08:47:33;11.60;;;5.30;;
61435;SDS011;47304;47.456;19.160;2023-05-21T08:50:02;9.80;;;5.00;;
61435;SDS011;47304;47.456;19.160;2023-05-21T08:52:33;9.70;;;5.20;;
61435;SDS011;47304;47.456;19.160;2023-05-21T08:55:00;10.30;;;4.90;;
61435;SDS011;47304;47.456;19.160;2023-05-21T08:57:29;9.20;;;4.80;;
61435;SDS011;47304;47.456;19.160;2023-05-21T08:59:56;9.80;;;5.20;;
61435;SDS011;47304;47.456;19.160;2023-05-21T09:02:24;8.50;;;4.60;;
61435;SDS011;47304;47.456;19.160;2023-05-21T09:04:53;10.30;;;4.60;;
61435;SDS011;47304;47.456;19.160;2023-05-21T09:07:21;8.60;;;4.60;;
61435;SDS011;47304;47.456;19.160;2023-05-21T09:09:54;8.90;;;4.20;;
61435;SDS011;47304;47.456;19.160;2023-05-21T09:12:23;7.00;;;3.90;;
61435;SDS011;47304;47.456;19.160;2023-05-21T09:14:50;8.50;;;4.30;;
61435;SDS011;47304;47.456;19.160;2023-05-21T09:17:17;8.30;;;4.60;;
61435;SDS011;47304;47.456;19.160;2023-05-21T09:22:42;11.20;;;4.40;;
61435;SDS011;47304;47.456;19.160;2023-05-21T09:25:11;8.10;;;4.30;;
61435;SDS011;47304;47.456;19.160;2023-05-21T09:27:42;8.40;;;4.40;;
61435;SDS011;47304;47.456;19.160;2023-05-21T09:30:09;7.90;;;4.50;;
61435;SDS011;47304;47.456;19.160;2023-05-21T09:32:38;9.50;;;4.60;;
61435;SDS011;47304;47.456;19.160;2023-05-21T09:35:06;7.90;;;4.40;;
61435;SDS011;47304;47.456;19.160;2023-05-21T09:40:14;9.70;;;4.00;;
61435;SDS011;47304;47.456;19.160;2023-05-21T09:42:44;8.10;;;4.50;;
61435;SDS011;47304;47.456;19.160;2023-05-21T09:45:22;8.00;;;4.30;;
61435;SDS011;47304;47.456;19.160;2023-05-21T09:47:53;9.00;;;4.50;;
61435;SDS011;47304;47.456;19.160;2023-05-21T09:50:21;8.90;;;4.40;;
61435;SDS011;47304;47.456;19.160;2023-05-21T09:52:49;8.00;;;4.30;;
61435;SDS011;47304;47.456;19.160;2023-05-21T09:55:17;8.40;;;4.40;;
61435;SDS011;47304;47.456;19.160;2023-05-21T09:57:47;8.10;;;4.30;;
61435;SDS011;47304;47.456;19.160;2023-05-21T10:00:23;9.10;;;5.00;;
61435;SDS011;47304;47.456;19.160;2023-05-21T10:02:54;8.20;;;4.30;;
61435;SDS011;47304;47.456;19.160;2023-05-21T10:05:25;10.20;;;5.10;;
61435;SDS011;47304;47.456;19.160;2023-05-21T10:08:01;10.20;;;4.70;;
61435;SDS011;47304;47.456;19.160;2023-05-21T10:10:29;8.10;;;4.40;;
61435;SDS011;47304;47.456;19.160;2023-05-21T10:12:58;9.20;;;4.70;;
61435;SDS011;47304;47.456;19.160;2023-05-21T10:15:30;8.40;;;4.70;;
61435;SDS011;47304;47.456;19.160;2023-05-21T10:17:59;7.80;;;4.40;;
61435;SDS011;47304;47.456;19.160;2023-05-21T10:20:26;9.20;;;4.50;;
61435;SDS011;47304;47.456;19.160;2023-05-21T10:22:54;7.70;;;4.30;;
61435;SDS011;47304;47.456;19.160;2023-05-21T10:25:22;8.80;;;4.60;;
61435;SDS011;47304;47.456;19.160;2023-05-21T10:27:50;9.50;;;4.50;;
61435;SDS011;47304;47.456;19.160;2023-05-21T10:30:20;9.70;;;4.70;;
61435;SDS011;47304;47.456;19.160;2023-05-21T10:32:48;8.50;;;4.60;;
61435;SDS011;47304;47.456;19.160;2023-05-21T10:35:16;7.10;;;4.00;;
61435;SDS011;47304;47.456;19.160;2023-05-21T10:37:43;8.40;;;4.20;;
61435;SDS011;47304;47.456;19.160;2023-05-21T10:40:11;8.70;;;4.50;;
61435;SDS011;47304;47.456;19.160;2023-05-21T10:45:25;8.20;;;4.20;;
61435;SDS011;47304;47.456;19.160;2023-05-21T11:01:50;8.10;;;4.50;;
61435;SDS011;47304;47.456;19.160;2023-05-21T11:04:20;7.40;;;4.10;;
61435;SDS011;47304;47.456;19.160;2023-05-21T11:06:54;9.80;;;4.80;;
61435;SDS011;47304;47.456;19.160;2023-05-21T11:09:21;8.40;;;4.40;;
61435;SDS011;47304;47.456;19.160;2023-05-21T11:11:51;10.30;;;4.70;;
61435;SDS011;47304;47.456;19.160;2023-05-21T11:14:28;8.20;;;4.30;;
61435;SDS011;47304;47.456;19.160;2023-05-21T11:17:09;8.80;;;4.50;;
61435;SDS011;47304;47.456;19.160;2023-05-21T11:19:44;8.40;;;4.10;;
61435;SDS011;47304;47.456;19.160;2023-05-21T11:24:47;10.30;;;4.10;;
61435;SDS011;47304;47.456;19.160;2023-05-21T11:27:29;8.90;;;4.90;;
61435;SDS011;47304;47.456;19.160;2023-05-21T11:29:55;8.10;;;4.50;;
61435;SDS011;47304;47.456;19.160;2023-05-21T11:32:22;9.20;;;4.30;;
61435;SDS011;47304;47.456;19.160;2023-05-21T11:34:49;9.30;;;4.30;;
61435;SDS011;47304;47.456;19.160;2023-05-21T11:39:45;8.40;;;4.40;;
61435;SDS011;47304;47.456;19.160;2023-05-21T11:42:26;8.20;;;4.50;;
61435;SDS011;47304;47.456;19.160;2023-05-21T11:44:54;9.30;;;4.60;;
61435;SDS011;47304;47.456;19.160;2023-05-21T11:47:22;7.40;;;4.10;;
61435;SDS011;47304;47.456;19.160;2023-05-21T11:49:49;8.50;;;4.80;;
61435;SDS011;47304;47.456;19.160;2023-05-21T11:52:15;12.00;;;4.90;;
61435;SDS011;47304;47.456;19.160;2023-05-21T11:54:42;8.20;;;4.80;;
61435;SDS011;47304;47.456;19.160;2023-05-21T11:57:11;7.80;;;4.70;;
61435;SDS011;47304;47.456;19.160;2023-05-21T11:59:38;7.50;;;4.50;;
61435;SDS011;47304;47.456;19.160;2023-05-21T12:02:04;7.50;;;4.40;;
61435;SDS011;47304;47.456;19.160;2023-05-21T12:04:31;10.10;;;4.60;;
61435;SDS011;47304;47.456;19.160;2023-05-21T12:07:02;8.30;;;4.80;;
61435;SDS011;47304;47.456;19.160;2023-05-21T12:09:29;8.90;;;5.20;;
61435;SDS011;47304;47.456;19.160;2023-05-21T12:11:56;10.10;;;5.50;;
61435;SDS011;47304;47.456;19.160;2023-05-21T12:14:22;9.80;;;5.00;;
61435;SDS011;47304;47.456;19.160;2023-05-21T12:16:49;8.50;;;4.70;;
61435;SDS011;47304;47.456;19.160;2023-05-21T12:19:16;10.20;;;5.70;;
61435;SDS011;47304;47.456;19.160;2023-05-21T12:21:43;8.40;;;4.90;;
61435;SDS011;47304;47.456;19.160;2023-05-21T12:24:10;11.40;;;4.70;;
61435;SDS011;47304;47.456;19.160;2023-05-21T12:26:36;10.10;;;5.30;;
61435;SDS011;47304;47.456;19.160;2023-05-21T12:29:03;9.80;;;5.10;;
61435;SDS011;47304;47.456;19.160;2023-05-21T12:31:30;9.70;;;5.30;;
61435;SDS011;47304;47.456;19.160;2023-05-21T12:33:57;8.90;;;4.50;;
61435;SDS011;47304;47.456;19.160;2023-05-21T12:36:28;8.70;;;4.90;;
61435;SDS011;47304;47.456;19.160;2023-05-21T12:38:56;8.20;;;4.50;;
61435;SDS011;47304;47.456;19.160;2023-05-21T12:41:23;9.10;;;4.80;;
61435;SDS011;47304;47.456;19.160;2023-05-21T12:43:50;10.30;;;4.90;;
61435;SDS011;47304;47.456;19.160;2023-05-21T12:46:16;9.30;;;4.90;;
61435;SDS011;47304;47.456;19.160;2023-05-21T12:48:52;7.70;;;4.60;;
61435;SDS011;47304;47.456;19.160;2023-05-21T12:51:20;10.60;;;4.70;;
61435;SDS011;47304;47.456;19.160;2023-05-21T12:53:47;9.00;;;5.00;;
61435;SDS011;47304;47.456;19.160;2023-05-21T12:56:14;9.00;;;4.50;;
61435;SDS011;47304;47.456;19.160;2023-05-21T12:58:41;8.20;;;4.60;;
61435;SDS011;47304;47.456;19.160;2023-05-21T13:01:08;8.50;;;5.00;;
61435;SDS011;47304;47.456;19.160;2023-05-21T13:03:36;10.50;;;5.10;;
61435;SDS011;47304;47.456;19.160;2023-05-21T13:06:07;8.10;;;4.50;;
61435;SDS011;47304;47.456;19.160;2023-05-21T13:08:34;8.80;;;5.10;;
61435;SDS011;47304;47.456;19.160;2023-05-21T13:11:01;14.40;;;4.80;;
61435;SDS011;47304;47.456;19.160;2023-05-21T13:13:28;10.60;;;4.50;;
61435;SDS011;47304;47.456;19.160;2023-05-21T13:15:55;11.60;;;4.60;;
61435;SDS011;47304;47.456;19.160;2023-05-21T13:18:22;8.30;;;4.30;;
61435;SDS011;47304;47.456;19.160;2023-05-21T13:20:49;9.80;;;4.80;;
61435;SDS011;47304;47.456;19.160;2023-05-21T13:23:15;8.60;;;5.00;;
61435;SDS011;47304;47.456;19.160;2023-05-21T13:25:42;7.90;;;4.60;;
61435;SDS011;47304;47.456;19.160;2023-05-21T13:28:08;9.80;;;4.80;;
61435;SDS011;47304;47.456;19.160;2023-05-21T13:30:35;10.00;;;4.50;;
61435;SDS011;47304;47.456;19.160;2023-05-21T13:33:02;9.00;;;4.80;;
61435;SDS011;47304;47.456;19.160;2023-05-21T13:35:29;9.30;;;4.90;;
61435;SDS011;47304;47.456;19.160;2023-05-21T13:37:55;10.60;;;4.80;;
61435;SDS011;47304;47.456;19.160;2023-05-21T13:40:22;7.50;;;4.40;;
61435;SDS011;47304;47.456;19.160;2023-05-21T13:42:49;8.90;;;4.60;;
61435;SDS011;47304;47.456;19.160;2023-05-21T13:45:16;9.10;;;4.70;;
61435;SDS011;47304;47.456;19.160;2023-05-21T13:47:44;8.80;;;4.70;;
61435;SDS011;47304;47.456;19.160;2023-05-21T13:50:12;9.90;;;4.70;;
61435;SDS011;47304;47.456;19.160;2023-05-21T13:52:41;9.30;;;4.90;;
61435;SDS011;47304;47.456;19.160;2023-05-21T13:55:08;8.00;;;4.60;;
61435;SDS011;47304;47.456;19.160;2023-05-21T13:57:35;9.50;;;4.50;;
61435;SDS011;47304;47.456;19.160;2023-05-21T14:00:02;8.30;;;4.30;;
61435;SDS011;47304;47.456;19.160;2023-05-21T14:02:29;10.40;;;4.90;;
61435;SDS011;47304;47.456;19.160;2023-05-21T14:04:56;7.60;;;4.10;;
61435;SDS011;47304;47.456;19.160;2023-05-21T14:07:22;15.20;;;4.80;;
61435;SDS011;47304;47.456;19.160;2023-05-21T14:09:49;9.10;;;5.40;;
61435;SDS011;47304;47.456;19.160;2023-05-21T14:12:15;9.10;;;4.60;;
61435;SDS011;47304;47.456;19.160;2023-05-21T14:14:42;8.00;;;4.60;;
61435;SDS011;47304;47.456;19.160;2023-05-21T14:17:09;10.10;;;4.30;;
61435;SDS011;47304;47.456;19.160;2023-05-21T14:19:35;8.30;;;4.50;;
61435;SDS011;47304;47.456;19.160;2023-05-21T14:22:02;10.80;;;5.50;;
61435;SDS011;47304;47.456;19.160;2023-05-21T14:24:29;8.70;;;4.50;;
61435;SDS011;47304;47.456;19.160;2023-05-21T14:26:55;9.60;;;4.60;;
61435;SDS011;47304;47.456;19.160;2023-05-21T14:29:22;8.50;;;4.50;;
61435;SDS011;47304;47.456;19.160;2023-05-21T14:31:48;11.30;;;6.30;;
61435;SDS011;47304;47.456;19.160;2023-05-21T14:34:15;12.90;;;5.00;;
61435;SDS011;47304;47.456;19.160;2023-05-21T14:36:42;7.90;;;4.50;;
61435;SDS011;47304;47.456;19.160;2023-05-21T14:39:08;8.30;;;4.60;;
61435;SDS011;47304;47.456;19.160;2023-05-21T14:41:37;8.10;;;4.70;;
61435;SDS011;47304;47.456;19.160;2023-05-21T14:44:04;11.10;;;5.20;;
61435;SDS011;47304;47.456;19.160;2023-05-21T14:46:30;8.20;;;4.70;;
61435;SDS011;47304;47.456;19.160;2023-05-21T14:48:57;7.60;;;4.30;;
61435;SDS011;47304;47.456;19.160;2023-05-21T14:51:24;8.50;;;3.80;;
61435;SDS011;47304;47.456;19.160;2023-05-21T14:53:51;8.60;;;4.70;;
61435;SDS011;47304;47.456;19.160;2023-05-21T14:56:17;8.50;;;4.90;;